Time;durP1;ratioP1;P1;durP2;ratioP2;P2;SDS_P1;SDS_P2;PMS_P1;PMS_P2;Temp;Humidity;BMP_temperature;BMP_pressure;BME280_temperature;BME280_humidity;BME280_pressure;Samples;Min_cycle;Max_cycle;Signal;HPM_P1;HPM_P2
2024/01/07 00:01:50;;;;;;;28.58;21.25;;;;;;;0.51;100.00;101541.94;5281038;28;20132;-71
2024/01/07 00:04:22;;;;;;;26.73;21.70;;;;;;;0.60;100.00;101533.78;5282397;28;20183;-71
2024/01/07 00:06:53;;;;;;;26.73;21.23;;;;;;;0.50;100.00;101541.88;5281956;28;20029;-71
2024/01/07 00:09:24;;;;;;;26.40;19.93;;;;;;;0.42;100.00;101536.47;5281139;28;20115;-71
2024/01/07 00:11:56;;;;;;;27.33;21.37;;;;;;;0.45;100.00;101549.44;5280995;28;20052;-71
2024/01/07 00:14:27;;;;;;;34.33;23.53;;;;;;;0.40;100.00;101547.47;5280930;28;20372;-71
2024/01/07 00:16:59;;;;;;;28.03;22.27;;;;;;;0.38;100.00;101547.41;5282357;28;20488;-70
2024/01/07 00:19:31;;;;;;;27.77;21.67;;;;;;;0.35;100.00;101552.41;5282312;28;20041;-71
2024/01/07 00:22:03;;;;;;;27.52;21.98;;;;;;;0.40;100.00;101555.16;5282585;28;20107;-71
2024/01/07 00:24:34;;;;;;;27.70;21.43;;;;;;;0.38;100.00;101562.78;5282327;28;20043;-71
2024/01/07 00:27:07;;;;;;;27.67;21.60;;;;;;;0.39;100.00;101558.53;5281706;28;20033;-71
2024/01/07 00:29:39;;;;;;;26.77;20.40;;;;;;;0.42;100.00;101556.09;5282061;28;20511;-71
2024/01/07 00:32:10;;;;;;;27.23;22.73;;;;;;;0.41;100.00;101559.50;5280825;28;20112;-71
2024/01/07 00:34:41;;;;;;;26.30;21.00;;;;;;;0.41;100.00;101567.19;5282206;28;20044;-71
2024/01/07 00:37:13;;;;;;;26.37;22.17;;;;;;;0.39;100.00;101558.53;5281810;28;20436;-70
2024/01/07 00:39:45;;;;;;;25.93;20.67;;;;;;;0.36;100.00;101570.44;5282012;28;20035;-70
2024/01/07 00:42:16;;;;;;;;;;;;;;;0.44;100.00;101564.75;5282472;28;20047;-70
2024/01/07 00:44:48;;;;;;;27.38;21.70;;;;;;;0.41;100.00;101570.63;5282171;28;20262;-71
2024/01/07 00:47:19;;;;;;;28.27;22.27;;;;;;;0.48;100.00;101571.75;5284504;28;20032;-71
2024/01/07 00:49:50;;;;;;;27.60;22.37;;;;;;;0.47;100.00;101570.00;5283768;28;20163;-71
2024/01/07 00:52:23;;;;;;;24.90;20.13;;;;;;;0.49;100.00;101568.38;5285867;28;20209;-71
2024/01/07 00:54:54;;;;;;;24.40;19.35;;;;;;;0.44;100.00;101575.88;5285195;28;20119;-71
2024/01/07 00:57:25;;;;;;;23.40;19.17;;;;;;;0.48;100.00;101580.34;5285522;28;20032;-71
2024/01/07 00:59:57;;;;;;;19.67;17.43;;;;;;;0.45;100.00;101575.09;5285278;28;20489;-71
2024/01/07 01:02:28;;;;;;;21.47;18.47;;;;;;;0.51;100.00;101580.44;5284364;28;20028;-72
2024/01/07 01:04:59;;;;;;;19.37;16.90;;;;;;;0.52;100.00;101586.47;5285683;28;20036;-71
2024/01/07 01:07:31;;;;;;;19.73;16.93;;;;;;;0.45;100.00;101587.00;5285541;28;20119;-71
2024/01/07 01:10:02;;;;;;;17.93;16.03;;;;;;;0.48;100.00;101599.97;5285631;28;20033;-72
2024/01/07 01:12:34;;;;;;;19.37;16.73;;;;;;;0.45;100.00;101592.13;5285348;28;20043;-71
2024/01/07 01:15:05;;;;;;;18.80;16.80;;;;;;;0.47;100.00;101601.66;5285274;28;20074;-71
2024/01/07 01:17:37;;;;;;;20.47;17.83;;;;;;;0.52;100.00;101601.84;5285236;28;20043;-70
2024/01/07 01:20:09;;;;;;;18.87;16.67;;;;;;;0.51;100.00;101600.97;5285732;28;20456;-70
2024/01/07 01:22:40;;;;;;;18.33;16.13;;;;;;;0.45;100.00;101602.41;5284926;28;20047;-71
2024/01/07 01:25:11;;;;;;;19.27;17.23;;;;;;;0.46;100.00;101605.03;5284741;28;20040;-71
2024/01/07 01:27:44;;;;;;;20.83;17.57;;;;;;;0.42;100.00;101597.13;5285089;28;20566;-72
2024/01/07 01:30:16;;;;;;;20.55;18.08;;;;;;;0.41;100.00;101608.22;5284908;28;20024;-71
2024/01/07 01:32:47;;;;;;;22.60;19.80;;;;;;;0.41;100.00;101608.22;5285032;28;20035;-70
2024/01/07 01:35:19;;;;;;;22.27;18.77;;;;;;;0.45;100.00;101617.78;5284947;28;20342;-71
2024/01/07 01:37:50;;;;;;;21.87;19.00;;;;;;;0.52;100.00;101612.97;5284798;28;20486;-70
2024/01/07 01:40:21;;;;;;;23.63;19.60;;;;;;;0.44;100.00;101623.75;5284909;28;20028;-70
2024/01/07 01:42:53;;;;;;;23.10;19.63;;;;;;;0.52;100.00;101618.13;5283826;28;20036;-70
2024/01/07 01:45:24;;;;;;;23.27;19.83;;;;;;;0.54;100.00;101619.03;5284812;28;20107;-73
2024/01/07 01:47:56;;;;;;;23.53;20.10;;;;;;;0.53;100.00;101617.31;5284770;28;20041;-70
2024/01/07 01:50:27;;;;;;;27.13;21.10;;;;;;;0.54;100.00;101624.19;5285458;28;20128;-70
2024/01/07 01:52:58;;;;;;;27.03;22.07;;;;;;;0.47;100.00;101632.44;5284620;28;20028;-70
2024/01/07 01:55:30;;;;;;;27.27;22.00;;;;;;;0.46;100.00;101632.38;5284728;28;20028;-72
2024/01/07 01:58:03;;;;;;;29.40;23.33;;;;;;;0.50;100.00;101634.25;5284031;28;20052;-70
2024/01/07 02:00:35;;;;;;;27.70;21.70;;;;;;;0.46;100.00;101637.50;5284355;28;20044;-69
2024/01/07 02:03:06;;;;;;;31.83;23.70;;;;;;;0.46;100.00;101645.22;5284379;28;20480;-70
2024/01/07 02:05:38;;;;;;;31.07;23.27;;;;;;;0.45;100.00;101640.88;5284337;28;20541;-70
2024/01/07 02:08:10;;;;;;;31.20;22.27;;;;;;;0.40;100.00;101643.25;5284171;28;20453;-71
2024/01/07 02:10:42;;;;;;;27.52;22.88;;;;;;;0.45;100.00;101643.44;5284258;28;20032;-71
2024/01/07 02:13:13;;;;;;;32.50;23.83;;;;;;;0.47;100.00;101646.97;5284358;28;20089;-70
2024/01/07 02:15:45;;;;;;;27.63;23.83;;;;;;;0.49;100.00;101650.47;5283834;28;20032;-69
2024/01/07 02:18:16;;;;;;;31.33;24.70;;;;;;;0.47;100.00;101650.41;5284010;28;20476;-70
2024/01/07 02:20:48;;;;;;;31.60;23.90;;;;;;;0.38;100.00;101644.88;5284147;28;20024;-70
2024/01/07 02:23:19;;;;;;;30.83;22.57;;;;;;;0.42;100.00;101645.88;5283966;28;20074;-70
2024/01/07 02:25:50;;;;;;;30.23;23.63;;;;;;;0.44;100.00;101646.84;5283955;28;20523;-71
2024/01/07 02:28:22;;;;;;;26.73;21.97;;;;;;;0.35;100.00;101653.34;5283666;28;20025;-70
2024/01/07 02:30:53;;;;;;;32.63;22.70;;;;;;;0.36;100.00;101646.50;5283599;28;20028;-70
2024/01/07 02:33:25;;;;;;;32.60;23.47;;;;;;;0.39;100.00;101653.44;5283256;28;20036;-71
2024/01/07 02:35:56;;;;;;;33.33;24.00;;;;;;;0.41;100.00;101651.84;5283350;28;20039;-70
2024/01/07 02:38:28;;;;;;;36.23;24.67;;;;;;;0.40;100.00;101650.94;5284007;28;20039;-71
2024/01/07 02:40:59;;;;;;;29.43;23.17;;;;;;;0.42;100.00;101656.13;5283728;28;20032;-71
2024/01/07 02:43:30;;;;;;;33.33;24.23;;;;;;;0.39;100.00;101654.34;5282290;28;20033;-70
2024/01/07 02:46:02;;;;;;;31.70;23.97;;;;;;;0.34;100.00;101656.69;5284060;28;20464;-70
2024/01/07 02:48:33;;;;;;;33.37;24.77;;;;;;;0.33;100.00;101662.63;5283112;28;20178;-71
2024/01/07 02:51:05;;;;;;;33.50;26.83;;;;;;;0.23;100.00;101659.63;5283844;28;20082;-72
2024/01/07 02:53:36;;;;;;;37.80;27.10;;;;;;;0.28;100.00;101669.25;5283952;28;20024;-70
2024/01/07 02:56:08;;;;;;;36.03;25.17;;;;;;;0.30;100.00;101670.19;5283274;28;20185;-71
2024/01/07 02:58:40;;;;;;;38.23;27.07;;;;;;;0.30;100.00;101669.31;5283230;28;20024;-71
2024/01/07 03:01:11;;;;;;;36.97;26.73;;;;;;;0.30;100.00;101670.19;5283166;28;20043;-70
2024/01/07 03:03:42;;;;;;;40.60;28.13;;;;;;;0.29;100.00;101673.59;5283538;28;20036;-71
2024/01/07 03:06:14;;;;;;;44.73;28.97;;;;;;;0.29;100.00;101672.69;5282828;28;20032;-71
2024/01/07 03:08:46;;;;;;;45.43;30.97;;;;;;;0.30;100.00;101675.31;5281873;28;20036;-70
2024/01/07 03:11:18;;;;;;;;;;;;;;;0.32;100.00;101680.50;5283291;28;20031;-71
2024/01/07 03:13:49;;;;;;;44.45;30.30;;;;;;;0.28;100.00;101684.63;5282737;28;20240;-70
2024/01/07 03:16:25;;;;;;;49.13;32.07;;;;;;;0.29;100.00;101688.97;5282838;28;20044;-70
2024/01/07 03:18:57;;;;;;;51.38;33.58;;;;;;;0.22;100.00;101686.06;5283044;28;20021;-71
2024/01/07 03:21:29;;;;;;;46.93;31.33;;;;;;;0.21;100.00;101682.63;5282428;28;20040;-71
2024/01/07 03:24:00;;;;;;;49.17;31.58;;;;;;;0.18;100.00;101690.19;5282783;28;20105;-70
2024/01/07 03:26:32;;;;;;;45.27;32.83;;;;;;;0.19;100.00;101689.34;5283000;28;20360;-70
2024/01/07 03:29:04;;;;;;;57.65;36.03;;;;;;;0.22;100.00;101689.50;5282771;28;20025;-70
2024/01/07 03:31:35;;;;;;;52.87;34.43;;;;;;;0.25;100.00;101688.75;5282980;28;20033;-71
2024/01/07 03:34:06;;;;;;;52.57;34.70;;;;;;;0.27;100.00;101685.44;5281410;28;20040;-71
2024/01/07 03:36:38;;;;;;;55.27;33.87;;;;;;;0.33;100.00;101695.09;5281360;28;20035;-71
2024/01/07 03:39:09;;;;;;;49.00;33.10;;;;;;;0.25;100.00;101694.75;5282231;28;20091;-70
2024/01/07 03:41:40;;;;;;;52.77;33.70;;;;;;;0.27;100.00;101698.25;5282786;28;20379;-72
2024/01/07 03:44:12;;;;;;;52.87;34.33;;;;;;;0.28;100.00;101696.59;5282807;28;20029;-71
2024/01/07 03:46:43;;;;;;;52.63;35.40;;;;;;;0.33;100.00;101703.66;5282071;28;20025;-70
2024/01/07 03:49:15;;;;;;;50.00;34.40;;;;;;;0.32;100.00;101707.06;5282575;28;20472;-71
2024/01/07 03:51:46;;;;;;;49.77;31.70;;;;;;;0.31;100.00;101704.41;5282407;28;20111;-71
2024/01/07 03:54:17;;;;;;;48.20;32.67;;;;;;;0.35;100.00;101708.84;5282509;28;20032;-70
2024/01/07 03:56:49;;;;;;;48.97;31.90;;;;;;;0.34;100.00;101709.69;5282429;28;20035;-71
2024/01/07 03:59:22;;;;;;;42.63;30.30;;;;;;;0.32;100.00;101704.50;5282261;28;20110;-71
2024/01/07 04:01:55;;;;;;;40.50;30.38;;;;;;;0.34;100.00;101709.69;5281028;28;20060;-71
2024/01/07 04:04:27;;;;;;;39.72;28.52;;;;;;;0.35;100.00;101717.44;5283295;28;20448;-73
2024/01/07 04:06:58;;;;;;;35.67;27.77;;;;;;;0.31;100.00;101715.56;5282314;28;20090;-70
2024/01/07 04:09:29;;;;;;;35.87;25.63;;;;;;;0.34;100.00;101720.81;5281589;28;20115;-70
2024/01/07 04:12:01;;;;;;;35.40;27.17;;;;;;;0.34;100.00;101723.38;5282488;28;20428;-71
2024/01/07 04:14:33;;;;;;;37.60;27.87;;;;;;;0.30;100.00;101725.75;5282410;28;20090;-70
2024/01/07 04:17:05;;;;;;;34.40;25.88;;;;;;;0.31;100.00;101723.25;5282351;28;20496;-71
2024/01/07 04:19:38;;;;;;;35.73;26.67;;;;;;;0.33;100.00;101729.31;5282246;28;20119;-71
2024/01/07 04:22:09;;;;;;;32.58;25.42;;;;;;;0.38;100.00;101731.22;5286329;28;20438;-71
2024/01/07 04:24:41;;;;;;;33.60;26.43;;;;;;;0.31;100.00;101733.50;5286303;28;20029;-72
2024/01/07 04:27:13;;;;;;;33.67;26.50;;;;;;;0.31;100.00;101736.06;5286121;28;20453;-72
2024/01/07 04:29:44;;;;;;;33.43;26.93;;;;;;;0.38;100.00;101746.59;5286237;28;20043;-71
2024/01/07 04:32:16;;;;;;;31.03;24.47;;;;;;;0.30;100.00;101748.81;5285770;28;20062;-70
2024/01/07 04:34:47;;;;;;;33.53;24.83;;;;;;;0.32;100.00;101749.75;5286586;28;20037;-70
2024/01/07 04:37:18;;;;;;;34.90;26.00;;;;;;;0.32;100.00;101754.88;5285374;28;20102;-70
2024/01/07 04:39:50;;;;;;;32.17;24.20;;;;;;;0.32;100.00;101755.78;5286049;28;20349;-71
2024/01/07 04:42:21;;;;;;;33.90;26.37;;;;;;;0.33;100.00;101754.94;5284560;28;20202;-70
2024/01/07 04:44:53;;;;;;;38.23;26.60;;;;;;;0.32;100.00;101752.31;5285106;28;20110;-70
2024/01/07 04:47:29;;;;;;;34.43;25.53;;;;;;;0.26;100.00;101763.19;5285945;28;20037;-70
2024/01/07 04:50:00;;;;;;;33.88;24.85;;;;;;;0.31;100.00;101753.16;5285650;28;20049;-70
2024/01/07 04:52:31;;;;;;;36.27;24.77;;;;;;;0.27;100.00;101764.94;5286144;28;20036;-71
2024/01/07 04:55:03;;;;;;;36.67;25.00;;;;;;;0.26;100.00;101767.44;5286135;28;20120;-70
2024/01/07 04:57:35;;;;;;;33.53;24.87;;;;;;;0.25;100.00;101774.25;5285624;28;20056;-70
2024/01/07 05:00:06;;;;;;;32.50;23.80;;;;;;;0.28;100.00;101771.84;5285732;28;20115;-70
2024/01/07 05:02:38;;;;;;;30.90;22.50;;;;;;;0.28;100.00;101771.84;5285087;28;20048;-70
2024/01/07 05:05:09;;;;;;;35.03;23.43;;;;;;;0.30;100.00;101769.34;5286255;28;20171;-70
2024/01/07 05:07:40;;;;;;;32.70;24.60;;;;;;;0.28;100.00;101769.25;5285904;28;20036;-70
2024/01/07 05:10:12;;;;;;;30.50;23.87;;;;;;;0.24;100.00;101776.75;5285722;28;20130;-70
2024/01/07 05:12:43;;;;;;;27.20;22.33;;;;;;;0.26;100.00;101781.16;5285700;28;20078;-71
2024/01/07 05:15:14;;;;;;;23.87;20.53;;;;;;;0.23;100.00;101778.44;5285382;28;20116;-71
2024/01/07 05:17:46;;;;;;;28.13;22.30;;;;;;;0.24;100.00;101784.44;5285923;28;20495;-70
2024/01/07 05:20:17;;;;;;;27.30;20.83;;;;;;;0.23;100.00;101781.00;5285955;28;20041;-70
2024/01/07 05:22:49;;;;;;;27.80;20.83;;;;;;;0.31;100.00;101789.06;5286141;28;20084;-71
2024/01/07 05:25:20;;;;;;;25.97;18.97;;;;;;;0.26;100.00;101790.50;5285765;28;20032;-71
2024/01/07 05:27:51;;;;;;;22.67;17.97;;;;;;;0.18;100.00;101795.31;5285909;28;20035;-71
2024/01/07 05:30:23;;;;;;;20.73;16.27;;;;;;;0.18;100.00;101803.88;5285726;28;20036;-71
2024/01/07 05:32:54;;;;;;;19.90;16.67;;;;;;;0.16;100.00;101802.03;5285067;28;20020;-71
2024/01/07 05:35:26;;;;;;;18.03;15.40;;;;;;;0.24;100.00;101808.41;5284267;28;20119;-71
2024/01/07 05:37:58;;;;;;;17.43;14.83;;;;;;;0.15;100.00;101810.56;5284993;28;20029;-71
2024/01/07 05:40:29;;;;;;;18.23;14.82;;;;;;;0.15;100.00;101818.25;5285424;28;20063;-71
2024/01/07 05:43:00;;;;;;;17.67;14.97;;;;;;;0.14;100.00;101819.91;5284242;28;20068;-71
2024/01/07 05:45:32;;;;;;;17.47;14.43;;;;;;;0.11;100.00;101824.94;5284800;28;20438;-71
2024/01/07 05:48:03;;;;;;;16.80;14.47;;;;;;;0.12;100.00;101824.09;5285302;28;20417;-71
2024/01/07 05:50:35;;;;;;;15.73;13.63;;;;;;;0.10;100.00;101828.28;5283512;28;20496;-71
2024/01/07 05:53:06;;;;;;;15.23;13.13;;;;;;;0.03;100.00;101830.47;5285531;28;20088;-71
2024/01/07 05:55:37;;;;;;;17.47;13.30;;;;;;;0.06;100.00;101840.88;5283712;28;20052;-71
2024/01/07 05:58:09;;;;;;;15.47;13.77;;;;;;;0.05;100.00;101831.44;5285446;28;20371;-71
2024/01/07 06:00:40;;;;;;;15.90;14.17;;;;;;;0.07;100.00;101837.53;5285110;28;20059;-71
2024/01/07 06:03:12;;;;;;;15.30;13.70;;;;;;;0.05;100.00;101841.69;5283864;28;20100;-71
2024/01/07 06:05:43;;;;;;;15.93;13.13;;;;;;;0.02;100.00;101838.97;5285605;28;20522;-70
2024/01/07 06:08:15;;;;;;;16.80;13.70;;;;;;;0.05;100.00;101854.50;5284947;28;20117;-71
2024/01/07 06:10:46;;;;;;;16.97;13.93;;;;;;;0.02;100.00;101857.81;5284697;28;20429;-71
2024/01/07 06:13:18;;;;;;;16.60;14.33;;;;;;;0.03;100.00;101857.00;5285390;28;20100;-70
2024/01/07 06:15:49;;;;;;;14.53;12.40;;;;;;;-0.02;100.00;101864.47;5284359;28;20082;-71
2024/01/07 06:18:20;;;;;;;17.07;13.77;;;;;;;-0.02;100.00;101872.19;5285816;28;20037;-71
2024/01/07 06:20:52;;;;;;;15.90;13.37;;;;;;;-0.02;100.00;101869.63;5285662;28;20028;-70
2024/01/07 06:23:23;;;;;;;13.63;12.23;;;;;;;-0.04;100.00;101870.34;5285485;28;20458;-71
2024/01/07 06:25:54;;;;;;;14.73;10.87;;;;;;;-0.09;100.00;101874.38;5284416;28;20083;-70
2024/01/07 06:28:26;;;;;;;12.60;10.90;;;;;;;-0.09;100.00;101877.78;5285852;28;20024;-70
2024/01/07 06:30:57;;;;;;;14.70;12.03;;;;;;;-0.07;100.00;101880.44;5285903;28;20032;-71
2024/01/07 06:33:28;;;;;;;13.87;11.83;;;;;;;-0.06;100.00;101890.75;5286300;28;20039;-70
2024/01/07 06:36:01;;;;;;;13.70;11.43;;;;;;;-0.05;100.00;101892.53;5285843;28;20078;-70
2024/01/07 06:38:32;;;;;;;12.82;11.30;;;;;;;-0.02;100.00;101895.25;5285024;28;20111;-70
2024/01/07 06:41:04;;;;;;;16.03;12.00;;;;;;;-0.03;100.00;101902.88;5285459;28;20516;-70
2024/01/07 06:43:36;;;;;;;14.70;11.82;;;;;;;-0.06;100.00;101903.56;5290666;28;20037;-71
2024/01/07 06:46:07;;;;;;;14.97;12.53;;;;;;;-0.04;100.00;101901.97;5295541;28;20425;-70
2024/01/07 06:48:38;;;;;;;13.80;11.97;;;;;;;-0.06;100.00;101906.16;5291139;28;20149;-70
2024/01/07 06:51:10;;;;;;;16.37;12.63;;;;;;;0.03;100.00;101920.22;5288829;28;20024;-70
2024/01/07 06:53:41;;;;;;;15.33;12.90;;;;;;;-0.04;100.00;101919.03;5288348;28;20105;-70
2024/01/07 06:56:14;;;;;;;15.03;12.93;;;;;;;-0.04;100.00;101926.72;5290634;28;20317;-71
2024/01/07 06:58:45;;;;;;;15.55;13.60;;;;;;;-0.07;100.00;101924.88;5290786;28;20031;-71
2024/01/07 07:01:24;;;;;;;17.10;13.73;;;;;;;-0.08;100.00;101923.13;5292134;28;20203;-71
2024/01/07 07:03:55;;;;;;;15.35;13.73;;;;;;;-0.08;100.00;101925.69;5296003;28;20037;-71
2024/01/07 07:06:26;;;;;;;16.23;14.50;;;;;;;-0.04;100.00;101930.16;5298393;28;20037;-71
2024/01/07 07:08:58;;;;;;;18.07;14.17;;;;;;;-0.04;100.00;101932.72;5298343;28;20062;-70
2024/01/07 07:11:29;;;;;;;17.33;14.90;;;;;;;-0.05;100.00;101942.91;5297059;28;20028;-71
2024/01/07 07:14:00;;;;;;;18.80;15.10;;;;;;;-0.03;100.00;101946.44;5296484;28;20181;-71
2024/01/07 07:16:32;;;;;;;19.73;17.33;;;;;;;-0.07;100.00;101941.94;5298641;28;20050;-71
2024/01/07 07:19:03;;;;;;;24.07;18.50;;;;;;;-0.04;100.00;101942.09;5297538;28;20043;-70
2024/01/07 07:21:35;;;;;;;22.30;18.67;;;;;;;-0.05;100.00;101943.81;5297389;28;20505;-69
2024/01/07 07:24:06;;;;;;;20.83;17.87;;;;;;;-0.04;100.00;101949.78;5295302;28;20102;-71
2024/01/07 07:26:40;;;;;;;22.03;17.30;;;;;;;-0.02;100.00;101959.34;5297866;28;20138;-71
2024/01/07 07:29:12;;;;;;;18.70;16.58;;;;;;;-0.06;100.00;101964.22;5298497;28;20035;-71
2024/01/07 07:31:43;;;;;;;19.97;16.77;;;;;;;-0.03;100.00;101970.38;5299562;28;20088;-71
2024/01/07 07:34:14;;;;;;;16.20;14.00;;;;;;;-0.10;100.00;101968.28;5299353;28;20029;-71
2024/01/07 07:36:46;;;;;;;17.87;14.23;;;;;;;-0.13;100.00;101972.41;5300030;28;20032;-72
2024/01/07 07:39:17;;;;;;;16.07;13.57;;;;;;;-0.16;100.00;101973.16;5300651;28;20060;-73
2024/01/07 07:41:49;;;;;;;15.13;13.23;;;;;;;-0.22;100.00;101977.97;5300527;28;20067;-72
2024/01/07 07:44:20;;;;;;;15.23;13.63;;;;;;;-0.24;100.00;101989.78;5300878;28;20074;-69
2024/01/07 07:46:51;;;;;;;16.97;13.97;;;;;;;-0.21;100.00;101995.97;5302784;28;20037;-71
2024/01/07 07:49:23;;;;;;;15.50;12.53;;;;;;;-0.21;100.00;102005.31;5301659;28;20060;-70
2024/01/07 07:51:55;;;;;;;16.83;13.37;;;;;;;-0.25;100.00;102009.41;5301973;28;20045;-69
2024/01/07 07:54:26;;;;;;;17.02;14.13;;;;;;;-0.25;100.00;102011.97;5300406;28;20037;-70
2024/01/07 07:56:58;;;;;;;18.17;13.80;;;;;;;-0.26;100.00;102019.59;5304512;28;20033;-72
2024/01/07 07:59:29;;;;;;;17.33;12.67;;;;;;;-0.30;100.00;102020.25;5304360;28;20040;-71
2024/01/07 08:02:00;;;;;;;14.57;12.70;;;;;;;-0.31;100.00;102024.47;5304339;28;20092;-71
2024/01/07 08:04:32;;;;;;;15.60;13.47;;;;;;;-0.36;100.00;102025.91;5304764;28;20037;-70
2024/01/07 08:07:03;;;;;;;15.60;12.43;;;;;;;-0.40;100.00;102034.28;5303300;28;20036;-72
2024/01/07 08:09:38;;;;;;;16.23;13.40;;;;;;;-0.37;100.00;102029.31;5303960;28;20063;-71
2024/01/07 08:12:11;;;;;;;16.80;13.20;;;;;;;-0.41;100.00;102033.38;5305809;28;20029;-69
2024/01/07 08:14:43;;;;;;;15.13;12.43;;;;;;;-0.40;100.00;102032.56;5306934;28;20115;-70
2024/01/07 08:17:14;;;;;;;19.57;12.83;;;;;;;-0.36;100.00;102025.91;5308125;28;20020;-72
2024/01/07 08:19:46;;;;;;;19.40;14.40;;;;;;;-0.31;100.00;102031.28;5307927;28;20481;-71
2024/01/07 08:22:17;;;;;;;15.87;12.93;;;;;;;-0.29;100.00;102034.81;5308602;28;20047;-70
2024/01/07 08:24:50;;;;;;;17.47;13.00;;;;;;;-0.37;100.00;102044.69;5307171;28;20033;-72
2024/01/07 08:27:21;;;;;;;17.80;12.85;;;;;;;-0.35;100.00;102042.16;5305080;28;20028;-72
2024/01/07 08:29:53;;;;;;;16.57;12.70;;;;;;;-0.38;100.00;102053.16;5304447;28;20446;-71
2024/01/07 08:32:25;;;;;;;17.70;13.20;;;;;;;-0.42;100.00;102051.22;5299059;28;20375;-71
2024/01/07 08:34:56;;;;;;;17.90;13.50;;;;;;;-0.34;100.00;102061.88;5299508;28;20092;-71
2024/01/07 08:37:27;;;;;;;16.37;13.60;;;;;;;-0.37;100.00;102068.59;5296839;28;20028;-70
2024/01/07 08:39:59;;;;;;;17.20;13.90;;;;;;;-0.32;100.00;102063.72;5297622;28;20059;-69
2024/01/07 08:42:30;;;;;;;18.50;13.93;;;;;;;-0.34;100.00;102072.13;5292496;28;20136;-72
2024/01/07 08:45:04;;;;;;;16.53;13.10;;;;;;;-0.36;100.00;102069.47;5288990;28;20028;-71
2024/01/07 08:47:36;;;;;;;14.20;12.20;;;;;;;-0.41;100.00;102074.34;5289507;28;20027;-71
2024/01/07 08:50:08;;;;;;;15.43;12.40;;;;;;;-0.39;100.00;102079.56;5289202;28;20472;-71
2024/01/07 08:52:40;;;;;;;15.07;12.40;;;;;;;-0.38;100.00;102077.09;5288848;28;20041;-69
2024/01/07 08:55:12;;;;;;;14.70;12.30;;;;;;;-0.40;100.00;102086.38;5289312;28;20025;-71
2024/01/07 08:57:43;;;;;;;14.67;11.60;;;;;;;-0.36;100.00;102089.97;5288904;28;20032;-72
2024/01/07 09:00:15;;;;;;;16.10;12.57;;;;;;;-0.31;100.00;102095.34;5289048;28;20044;-73
2024/01/07 09:02:47;;;;;;;17.13;12.93;;;;;;;-0.29;100.00;102097.19;5289004;28;20028;-73
2024/01/07 09:05:18;;;;;;;13.27;11.00;;;;;;;-0.32;100.00;102098.69;5289299;28;20259;-73
2024/01/07 09:07:50;;;;;;;13.40;11.43;;;;;;;-0.32;100.00;102098.69;5285496;28;20036;-73
2024/01/07 09:10:22;;;;;;;15.30;10.93;;;;;;;-0.33;100.00;102102.09;5285452;28;20044;-73
2024/01/07 09:12:53;;;;;;;13.27;11.77;;;;;;;-0.32;100.00;102102.16;5285792;28;20043;-73
2024/01/07 09:15:25;;;;;;;14.30;12.37;;;;;;;-0.30;100.00;102117.63;5286156;28;20047;-72
2024/01/07 09:17:56;;;;;;;13.63;11.20;;;;;;;-0.35;100.00;102122.50;5284808;28;20021;-71
2024/01/07 09:20:28;;;;;;;11.53;10.30;;;;;;;-0.33;100.00;102126.00;5285740;28;20036;-73
2024/01/07 09:23:00;;;;;;;12.23;10.30;;;;;;;-0.31;100.00;102120.97;5286416;28;20195;-72
2024/01/07 09:25:31;;;;;;;12.00;9.82;;;;;;;-0.27;100.00;102133.16;5289517;28;20032;-72
2024/01/07 09:28:04;;;;;;;12.20;9.97;;;;;;;-0.35;100.00;102126.72;5293006;28;20028;-72
2024/01/07 09:30:35;;;;;;;12.98;10.80;;;;;;;-0.36;100.00;102130.97;5292245;28;20047;-72
2024/01/07 09:33:07;;;;;;;11.87;9.73;;;;;;;-0.35;100.00;102143.00;5285615;28;20123;-73
2024/01/07 09:35:38;;;;;;;10.93;9.67;;;;;;;-0.34;100.00;102151.56;5285559;28;20412;-73
2024/01/07 09:38:09;;;;;;;11.07;9.43;;;;;;;-0.33;100.00;102149.06;5285558;28;20036;-73
2024/01/07 09:40:41;;;;;;;11.80;9.77;;;;;;;-0.37;100.00;102148.03;5284688;28;20072;-73
2024/01/07 09:43:12;;;;;;;11.33;10.03;;;;;;;-0.30;100.00;102154.38;5284638;28;20464;-72
2024/01/07 09:45:47;;;;;;;13.80;10.00;;;;;;;-0.30;100.00;102158.63;5285093;28;20483;-73
2024/01/07 09:48:19;;;;;;;10.80;9.70;;;;;;;-0.33;100.00;102163.56;5285263;28;20033;-73
2024/01/07 09:50:52;;;;;;;10.93;9.80;;;;;;;-0.35;100.00;102167.72;5283599;28;20056;-72
2024/01/07 09:53:26;;;;;;;;;;;;;;;-0.26;100.00;102178.47;5286302;28;20045;-73
2024/01/07 09:56:09;;;;;;;11.35;10.15;;;;;;;-0.31;100.00;102180.78;5284738;28;19908;-73
2024/01/07 09:58:42;;;;;;;11.40;9.52;;;;;;;-0.37;100.00;102178.78;5283344;28;20036;-72
2024/01/07 10:01:14;;;;;;;9.70;8.60;;;;;;;-0.37;100.00;102186.47;5284507;28;20024;-73
2024/01/07 10:03:46;;;;;;;10.57;8.38;;;;;;;-0.42;100.00;102184.44;5284568;28;20028;-73
2024/01/07 10:06:20;;;;;;;10.00;9.00;;;;;;;-0.38;100.00;102191.50;5284332;28;20035;-73
2024/01/07 10:08:52;;;;;;;10.40;8.90;;;;;;;-0.40;100.00;102185.44;5283732;28;20029;-73
2024/01/07 10:11:23;;;;;;;9.43;8.43;;;;;;;-0.37;100.00;102195.84;5284049;28;20040;-72
2024/01/07 10:13:54;;;;;;;9.60;8.60;;;;;;;-0.43;100.00;102193.81;5284695;28;20028;-72
2024/01/07 10:16:26;;;;;;;10.67;8.63;;;;;;;-0.43;100.00;102192.94;5284055;28;20040;-72
2024/01/07 10:18:57;;;;;;;9.50;8.47;;;;;;;-0.43;100.00;102210.88;5283540;28;20044;-72
2024/01/07 10:21:28;;;;;;;9.67;8.47;;;;;;;-0.41;100.00;102212.69;5284195;28;20414;-72
2024/01/07 10:24:12;;;;;;;9.87;8.33;;;;;;;-0.40;100.00;102214.47;5284723;28;20071;-72
2024/01/07 10:26:44;;;;;;;9.57;8.63;;;;;;;-0.39;100.00;102213.69;5284603;28;20024;-73
2024/01/07 10:29:15;;;;;;;10.63;9.27;;;;;;;-0.43;100.00;102213.44;5284157;28;20091;-73
2024/01/07 10:31:47;;;;;;;10.23;9.00;;;;;;;-0.45;100.00;102210.78;5284067;28;20487;-73
2024/01/07 10:34:22;;;;;;;11.03;9.57;;;;;;;-0.43;100.00;102211.75;5284108;28;20111;-73
2024/01/07 10:36:56;;;;;;;11.15;8.68;;;;;;;-0.42;100.00;102215.19;5284643;28;20401;-73
2024/01/07 10:39:27;;;;;;;9.48;8.35;;;;;;;-0.39;100.00;102210.22;5284478;28;20059;-73
2024/01/07 10:41:59;;;;;;;11.10;9.00;;;;;;;-0.39;100.00;102213.69;5283999;28;20053;-73
2024/01/07 10:44:32;;;;;;;10.63;9.13;;;;;;;-0.35;100.00;102209.63;5284581;28;20021;-72
2024/01/07 10:47:06;;;;;;;;;;;;;;;-0.25;100.00;102209.31;5284130;28;20098;-72
2024/01/07 10:49:44;;;;;;;10.57;8.70;;;;;;;-0.32;100.00;102214.91;5283262;28;19916;-72
2024/01/07 10:52:16;;;;;;;11.43;9.38;;;;;;;-0.30;100.00;102205.63;5283440;28;20465;-73
2024/01/07 10:54:48;;;;;;;11.20;9.60;;;;;;;-0.23;100.00;102215.38;5283462;28;20070;-71
2024/01/07 10:57:43;;;;;;;10.27;9.02;;;;;;;-0.14;100.00;102214.16;5283099;28;20039;-73
2024/01/07 11:00:22;;;;;;;10.40;8.57;;;;;;;-0.12;100.00;102213.41;5283817;28;20070;-73
2024/01/07 11:03:19;;;;;;;12.18;9.38;;;;;;;-0.09;100.00;102217.84;5283424;28;20387;-72
2024/01/07 11:05:58;;;;;;;16.83;12.13;;;;;;;-0.15;100.00;102226.06;5283402;28;20040;-72
2024/01/07 11:08:40;;;;;;;10.20;8.90;;;;;;;-0.17;100.00;102219.97;5283257;28;20053;-72
2024/01/07 11:11:20;;;;;;;11.07;8.63;;;;;;;-0.12;100.00;102225.34;5283250;28;20028;-72
2024/01/07 11:13:52;;;;;;;10.60;8.63;;;;;;;-0.10;100.00;102222.06;5283151;28;20051;-72
2024/01/07 11:16:39;;;;;;;10.67;9.20;;;;;;;0.05;100.00;102219.44;5283518;28;20029;-72
2024/01/07 11:19:14;;;;;;;10.50;9.32;;;;;;;0.01;100.00;102224.34;5283540;28;20020;-72
2024/01/07 11:21:46;;;;;;;9.77;8.75;;;;;;;0.01;100.00;102227.78;5283348;28;20035;-72
2024/01/07 11:24:56;;;;;;;9.80;7.90;;;;;;;0.23;100.00;102234.94;5282029;28;20032;-73
2024/01/07 11:27:32;;;;;;;11.18;9.20;;;;;;;0.10;100.00;102232.53;5238888;28;20040;-72
2024/01/07 11:30:07;;;;;;;10.23;8.27;;;;;;;0.12;100.00;102236.03;5277613;28;20067;-72
2024/01/07 11:32:39;;;;;;;9.65;8.13;;;;;;;0.10;100.00;102238.53;5283334;28;20425;-72